sensor_id;sensor_type;location;lat;lon;timestamp;P1;durP1;ratioP1;P2;durP2;ratioP2
70150;SDS011;57517;43.562;19.540;2024-02-28T00:01:28;47.92;;;37.90;;
70150;SDS011;57517;43.562;19.540;2024-02-28T00:03:54;37.65;;;28.80;;
70150;SDS011;57517;43.562;19.540;2024-02-28T00:06:19;38.35;;;28.75;;
70150;SDS011;57517;43.562;19.540;2024-02-28T00:08:45;32.38;;;26.23;;
70150;SDS011;57517;43.562;19.540;2024-02-28T00:11:11;34.25;;;25.20;;
70150;SDS011;57517;43.562;19.540;2024-02-28T00:13:37;40.00;;;29.33;;
70150;SDS011;57517;43.562;19.540;2024-02-28T00:16:03;37.90;;;29.15;;
70150;SDS011;57517;43.562;19.540;2024-02-28T00:18:29;34.67;;;27.75;;
70150;SDS011;57517;43.562;19.540;2024-02-28T00:20:57;32.33;;;23.75;;
70150;SDS011;57517;43.562;19.540;2024-02-28T00:23:24;29.05;;;22.75;;
70150;SDS011;57517;43.562;19.540;2024-02-28T00:25:49;31.30;;;23.08;;
70150;SDS011;57517;43.562;19.540;2024-02-28T00:28:15;35.75;;;25.33;;
70150;SDS011;57517;43.562;19.540;2024-02-28T00:30:41;31.00;;;23.75;;
70150;SDS011;57517;43.562;19.540;2024-02-28T00:33:07;28.85;;;22.70;;
70150;SDS011;57517;43.562;19.540;2024-02-28T00:35:32;30.38;;;22.88;;
70150;SDS011;57517;43.562;19.540;2024-02-28T00:37:59;31.63;;;24.52;;
70150;SDS011;57517;43.562;19.540;2024-02-28T00:40:25;29.85;;;23.08;;
70150;SDS011;57517;43.562;19.540;2024-02-28T00:42:51;32.97;;;24.27;;
70150;SDS011;57517;43.562;19.540;2024-02-28T00:45:17;35.53;;;24.63;;
70150;SDS011;57517;43.562;19.540;2024-02-28T00:47:42;35.33;;;25.63;;
70150;SDS011;57517;43.562;19.540;2024-02-28T00:50:08;31.67;;;24.85;;
70150;SDS011;57517;43.562;19.540;2024-02-28T00:52:34;30.55;;;24.75;;
70150;SDS011;57517;43.562;19.540;2024-02-28T00:55:00;39.53;;;27.45;;
70150;SDS011;57517;43.562;19.540;2024-02-28T00:57:26;31.38;;;24.80;;
70150;SDS011;57517;43.562;19.540;2024-02-28T00:59:52;33.85;;;25.60;;
70150;SDS011;57517;43.562;19.540;2024-02-28T01:02:19;37.20;;;27.17;;
70150;SDS011;57517;43.562;19.540;2024-02-28T01:04:46;34.40;;;27.13;;
70150;SDS011;57517;43.562;19.540;2024-02-28T01:07:12;36.70;;;27.13;;
70150;SDS011;57517;43.562;19.540;2024-02-28T01:09:38;40.10;;;28.98;;
70150;SDS011;57517;43.562;19.540;2024-02-28T01:12:04;37.50;;;27.40;;
70150;SDS011;57517;43.562;19.540;2024-02-28T01:14:30;36.15;;;27.77;;
70150;SDS011;57517;43.562;19.540;2024-02-28T01:16:56;34.95;;;27.90;;
70150;SDS011;57517;43.562;19.540;2024-02-28T01:19:21;35.67;;;27.33;;
70150;SDS011;57517;43.562;19.540;2024-02-28T01:21:47;38.72;;;28.75;;
70150;SDS011;57517;43.562;19.540;2024-02-28T01:24:13;37.53;;;29.17;;
70150;SDS011;57517;43.562;19.540;2024-02-28T01:26:39;42.22;;;29.35;;
70150;SDS011;57517;43.562;19.540;2024-02-28T01:29:05;39.55;;;28.38;;
70150;SDS011;57517;43.562;19.540;2024-02-28T01:31:31;42.75;;;29.35;;
70150;SDS011;57517;43.562;19.540;2024-02-28T01:33:57;41.00;;;29.42;;
70150;SDS011;57517;43.562;19.540;2024-02-28T01:36:22;44.13;;;30.05;;
70150;SDS011;57517;43.562;19.540;2024-02-28T01:38:48;40.60;;;29.73;;
70150;SDS011;57517;43.562;19.540;2024-02-28T01:41:14;39.22;;;29.65;;
70150;SDS011;57517;43.562;19.540;2024-02-28T01:43:40;38.72;;;27.98;;
70150;SDS011;57517;43.562;19.540;2024-02-28T01:46:10;38.42;;;28.90;;
70150;SDS011;57517;43.562;19.540;2024-02-28T01:48:45;33.97;;;26.48;;
70150;SDS011;57517;43.562;19.540;2024-02-28T01:51:11;34.30;;;26.10;;
70150;SDS011;57517;43.562;19.540;2024-02-28T01:53:37;31.75;;;24.42;;
70150;SDS011;57517;43.562;19.540;2024-02-28T01:56:03;27.23;;;19.48;;
70150;SDS011;57517;43.562;19.540;2024-02-28T01:58:29;29.70;;;19.60;;
70150;SDS011;57517;43.562;19.540;2024-02-28T02:00:56;23.75;;;19.00;;
70150;SDS011;57517;43.562;19.540;2024-02-28T02:03:24;28.67;;;22.00;;
70150;SDS011;57517;43.562;19.540;2024-02-28T02:05:49;27.27;;;19.10;;
70150;SDS011;57517;43.562;19.540;2024-02-28T02:08:15;25.48;;;19.90;;
70150;SDS011;57517;43.562;19.540;2024-02-28T02:10:41;29.02;;;20.48;;
70150;SDS011;57517;43.562;19.540;2024-02-28T02:13:07;27.25;;;21.20;;
70150;SDS011;57517;43.562;19.540;2024-02-28T02:15:33;27.58;;;20.15;;
70150;SDS011;57517;43.562;19.540;2024-02-28T02:17:59;22.17;;;17.40;;
70150;SDS011;57517;43.562;19.540;2024-02-28T02:20:25;21.70;;;15.32;;
70150;SDS011;57517;43.562;19.540;2024-02-28T02:22:52;22.17;;;16.58;;
70150;SDS011;57517;43.562;19.540;2024-02-28T02:25:18;31.55;;;23.48;;
70150;SDS011;57517;43.562;19.540;2024-02-28T02:27:44;32.08;;;25.98;;
70150;SDS011;57517;43.562;19.540;2024-02-28T02:30:10;31.30;;;25.90;;
70150;SDS011;57517;43.562;19.540;2024-02-28T02:32:36;38.47;;;28.70;;
70150;SDS011;57517;43.562;19.540;2024-02-28T02:35:02;36.60;;;26.33;;
70150;SDS011;57517;43.562;19.540;2024-02-28T02:37:28;35.17;;;28.13;;
70150;SDS011;57517;43.562;19.540;2024-02-28T02:39:54;36.60;;;28.60;;
70150;SDS011;57517;43.562;19.540;2024-02-28T02:42:20;49.70;;;31.55;;
70150;SDS011;57517;43.562;19.540;2024-02-28T02:44:46;45.85;;;32.88;;
70150;SDS011;57517;43.562;19.540;2024-02-28T02:47:12;42.05;;;32.80;;
70150;SDS011;57517;43.562;19.540;2024-02-28T02:49:37;40.63;;;31.13;;
70150;SDS011;57517;43.562;19.540;2024-02-28T02:52:03;43.53;;;33.05;;
70150;SDS011;57517;43.562;19.540;2024-02-28T02:54:29;44.78;;;34.30;;
70150;SDS011;57517;43.562;19.540;2024-02-28T02:56:55;43.80;;;31.98;;
70150;SDS011;57517;43.562;19.540;2024-02-28T02:59:21;40.78;;;32.00;;
70150;SDS011;57517;43.562;19.540;2024-02-28T03:01:49;42.28;;;30.98;;
70150;SDS011;57517;43.562;19.540;2024-02-28T03:04:15;42.10;;;31.65;;
70150;SDS011;57517;43.562;19.540;2024-02-28T03:06:41;45.33;;;31.98;;
70150;SDS011;57517;43.562;19.540;2024-02-28T03:09:08;41.63;;;31.48;;
70150;SDS011;57517;43.562;19.540;2024-02-28T03:11:34;38.90;;;28.73;;
70150;SDS011;57517;43.562;19.540;2024-02-28T03:14:03;37.28;;;28.05;;
70150;SDS011;57517;43.562;19.540;2024-02-28T03:16:29;39.90;;;29.15;;
70150;SDS011;57517;43.562;19.540;2024-02-28T03:18:54;39.03;;;27.55;;
70150;SDS011;57517;43.562;19.540;2024-02-28T03:21:21;37.90;;;27.33;;
70150;SDS011;57517;43.562;19.540;2024-02-28T03:23:47;35.75;;;27.27;;
70150;SDS011;57517;43.562;19.540;2024-02-28T03:26:13;34.45;;;27.48;;
70150;SDS011;57517;43.562;19.540;2024-02-28T03:28:39;39.90;;;29.30;;
70150;SDS011;57517;43.562;19.540;2024-02-28T03:31:04;35.25;;;25.80;;
70150;SDS011;57517;43.562;19.540;2024-02-28T03:33:30;31.60;;;25.55;;
70150;SDS011;57517;43.562;19.540;2024-02-28T03:35:58;41.50;;;32.47;;
70150;SDS011;57517;43.562;19.540;2024-02-28T03:38:23;34.17;;;26.52;;
70150;SDS011;57517;43.562;19.540;2024-02-28T03:40:49;29.58;;;23.65;;
70150;SDS011;57517;43.562;19.540;2024-02-28T03:43:15;26.95;;;21.75;;
70150;SDS011;57517;43.562;19.540;2024-02-28T03:45:40;24.48;;;19.65;;
70150;SDS011;57517;43.562;19.540;2024-02-28T03:48:06;23.67;;;18.27;;
70150;SDS011;57517;43.562;19.540;2024-02-28T03:50:32;28.25;;;18.98;;
70150;SDS011;57517;43.562;19.540;2024-02-28T03:52:58;24.65;;;18.75;;
70150;SDS011;57517;43.562;19.540;2024-02-28T03:55:24;27.88;;;19.23;;
70150;SDS011;57517;43.562;19.540;2024-02-28T03:57:50;26.85;;;18.80;;
70150;SDS011;57517;43.562;19.540;2024-02-28T04:00:17;24.55;;;18.23;;
70150;SDS011;57517;43.562;19.540;2024-02-28T04:02:43;20.10;;;17.33;;
70150;SDS011;57517;43.562;19.540;2024-02-28T04:05:09;25.90;;;16.70;;
70150;SDS011;57517;43.562;19.540;2024-02-28T04:07:34;26.83;;;19.92;;
70150;SDS011;57517;43.562;19.540;2024-02-28T04:10:00;22.92;;;16.90;;
70150;SDS011;57517;43.562;19.540;2024-02-28T04:12:26;22.35;;;16.90;;
70150;SDS011;57517;43.562;19.540;2024-02-28T04:14:52;23.30;;;15.13;;
70150;SDS011;57517;43.562;19.540;2024-02-28T04:17:18;21.45;;;14.75;;
70150;SDS011;57517;43.562;19.540;2024-02-28T04:19:44;37.85;;;25.60;;
70150;SDS011;57517;43.562;19.540;2024-02-28T04:22:09;39.70;;;27.65;;
70150;SDS011;57517;43.562;19.540;2024-02-28T04:24:35;35.20;;;25.55;;
70150;SDS011;57517;43.562;19.540;2024-02-28T04:27:01;36.90;;;26.70;;
70150;SDS011;57517;43.562;19.540;2024-02-28T04:29:29;38.03;;;24.83;;
70150;SDS011;57517;43.562;19.540;2024-02-28T04:31:55;35.05;;;23.67;;
70150;SDS011;57517;43.562;19.540;2024-02-28T04:34:21;35.10;;;23.55;;
70150;SDS011;57517;43.562;19.540;2024-02-28T04:36:46;26.80;;;20.15;;
70150;SDS011;57517;43.562;19.540;2024-02-28T04:39:12;18.88;;;14.50;;
70150;SDS011;57517;43.562;19.540;2024-02-28T04:41:38;21.55;;;14.80;;
70150;SDS011;57517;43.562;19.540;2024-02-28T04:44:04;24.27;;;16.80;;
70150;SDS011;57517;43.562;19.540;2024-02-28T04:46:29;29.35;;;19.63;;
70150;SDS011;57517;43.562;19.540;2024-02-28T04:48:55;26.55;;;18.95;;
70150;SDS011;57517;43.562;19.540;2024-02-28T04:51:21;22.50;;;16.10;;
70150;SDS011;57517;43.562;19.540;2024-02-28T04:53:47;21.35;;;16.23;;
70150;SDS011;57517;43.562;19.540;2024-02-28T04:56:12;20.15;;;15.10;;
70150;SDS011;57517;43.562;19.540;2024-02-28T04:58:38;20.83;;;14.25;;
70150;SDS011;57517;43.562;19.540;2024-02-28T05:01:04;18.80;;;14.13;;
70150;SDS011;57517;43.562;19.540;2024-02-28T05:03:30;18.60;;;13.82;;
70150;SDS011;57517;43.562;19.540;2024-02-28T05:05:55;23.83;;;15.98;;
70150;SDS011;57517;43.562;19.540;2024-02-28T05:08:21;21.58;;;15.63;;
70150;SDS011;57517;43.562;19.540;2024-02-28T05:10:47;21.15;;;13.68;;
70150;SDS011;57517;43.562;19.540;2024-02-28T05:13:15;22.05;;;14.70;;
70150;SDS011;57517;43.562;19.540;2024-02-28T05:15:41;15.25;;;12.52;;
70150;SDS011;57517;43.562;19.540;2024-02-28T05:18:06;20.20;;;13.82;;
70150;SDS011;57517;43.562;19.540;2024-02-28T05:20:32;19.23;;;14.63;;
70150;SDS011;57517;43.562;19.540;2024-02-28T05:22:58;22.67;;;17.05;;
70150;SDS011;57517;43.562;19.540;2024-02-28T05:25:24;25.85;;;18.35;;
70150;SDS011;57517;43.562;19.540;2024-02-28T05:27:49;26.67;;;17.95;;
70150;SDS011;57517;43.562;19.540;2024-02-28T05:30:15;27.67;;;18.60;;
70150;SDS011;57517;43.562;19.540;2024-02-28T05:32:41;26.83;;;19.95;;
70150;SDS011;57517;43.562;19.540;2024-02-28T05:35:07;32.15;;;22.40;;
70150;SDS011;57517;43.562;19.540;2024-02-28T05:37:33;33.67;;;22.02;;
70150;SDS011;57517;43.562;19.540;2024-02-28T05:39:59;33.08;;;21.65;;
70150;SDS011;57517;43.562;19.540;2024-02-28T05:42:25;33.97;;;23.73;;
70150;SDS011;57517;43.562;19.540;2024-02-28T05:44:51;31.70;;;23.13;;
70150;SDS011;57517;43.562;19.540;2024-02-28T05:47:17;31.35;;;23.42;;
70150;SDS011;57517;43.562;19.540;2024-02-28T05:49:42;30.63;;;21.90;;
70150;SDS011;57517;43.562;19.540;2024-02-28T05:52:09;36.08;;;24.95;;
70150;SDS011;57517;43.562;19.540;2024-02-28T05:54:35;37.42;;;25.77;;
70150;SDS011;57517;43.562;19.540;2024-02-28T05:57:01;32.20;;;24.27;;
70150;SDS011;57517;43.562;19.540;2024-02-28T05:59:27;39.20;;;25.00;;
70150;SDS011;57517;43.562;19.540;2024-02-28T06:01:53;29.63;;;24.00;;
70150;SDS011;57517;43.562;19.540;2024-02-28T06:04:19;33.17;;;24.13;;
70150;SDS011;57517;43.562;19.540;2024-02-28T06:06:45;36.55;;;26.15;;
70150;SDS011;57517;43.562;19.540;2024-02-28T06:09:11;35.38;;;28.17;;
70150;SDS011;57517;43.562;19.540;2024-02-28T06:11:36;46.13;;;32.03;;
70150;SDS011;57517;43.562;19.540;2024-02-28T06:14:02;43.22;;;30.10;;
70150;SDS011;57517;43.562;19.540;2024-02-28T06:16:29;43.33;;;30.60;;
70150;SDS011;57517;43.562;19.540;2024-02-28T06:18:55;40.20;;;30.50;;
70150;SDS011;57517;43.562;19.540;2024-02-28T06:21:21;38.80;;;28.27;;
70150;SDS011;57517;43.562;19.540;2024-02-28T06:23:48;40.22;;;27.60;;
70150;SDS011;57517;43.562;19.540;2024-02-28T06:26:13;39.42;;;29.05;;
70150;SDS011;57517;43.562;19.540;2024-02-28T06:28:42;45.40;;;34.00;;
70150;SDS011;57517;43.562;19.540;2024-02-28T06:31:17;62.60;;;46.78;;
70150;SDS011;57517;43.562;19.540;2024-02-28T06:33:43;47.70;;;35.92;;
70150;SDS011;57517;43.562;19.540;2024-02-28T06:36:09;55.10;;;43.92;;
70150;SDS011;57517;43.562;19.540;2024-02-28T06:38:35;52.33;;;38.72;;
70150;SDS011;57517;43.562;19.540;2024-02-28T06:41:02;43.20;;;33.08;;
70150;SDS011;57517;43.562;19.540;2024-02-28T06:43:29;37.38;;;29.92;;
70150;SDS011;57517;43.562;19.540;2024-02-28T06:45:55;44.13;;;32.03;;
70150;SDS011;57517;43.562;19.540;2024-02-28T06:48:21;46.83;;;32.78;;
70150;SDS011;57517;43.562;19.540;2024-02-28T06:50:47;57.85;;;39.92;;
70150;SDS011;57517;43.562;19.540;2024-02-28T06:53:12;40.67;;;31.40;;
70150;SDS011;57517;43.562;19.540;2024-02-28T06:55:40;42.53;;;32.45;;
70150;SDS011;57517;43.562;19.540;2024-02-28T06:58:06;44.85;;;34.20;;
70150;SDS011;57517;43.562;19.540;2024-02-28T07:00:32;43.05;;;33.03;;
70150;SDS011;57517;43.562;19.540;2024-02-28T07:02:57;46.67;;;36.95;;
70150;SDS011;57517;43.562;19.540;2024-02-28T07:05:23;53.13;;;43.28;;
70150;SDS011;57517;43.562;19.540;2024-02-28T07:07:49;48.85;;;39.10;;
70150;SDS011;57517;43.562;19.540;2024-02-28T07:10:15;48.53;;;37.05;;
70150;SDS011;57517;43.562;19.540;2024-02-28T07:12:41;49.45;;;40.53;;
70150;SDS011;57517;43.562;19.540;2024-02-28T07:15:06;45.92;;;36.22;;
70150;SDS011;57517;43.562;19.540;2024-02-28T07:17:32;80.43;;;54.60;;
70150;SDS011;57517;43.562;19.540;2024-02-28T07:19:58;84.97;;;55.10;;
70150;SDS011;57517;43.562;19.540;2024-02-28T07:22:24;58.97;;;43.05;;
70150;SDS011;57517;43.562;19.540;2024-02-28T07:24:50;48.40;;;38.30;;
70150;SDS011;57517;43.562;19.540;2024-02-28T07:27:16;63.13;;;35.53;;
70150;SDS011;57517;43.562;19.540;2024-02-28T07:29:42;44.70;;;32.30;;
70150;SDS011;57517;43.562;19.540;2024-02-28T07:32:09;53.00;;;38.45;;
70150;SDS011;57517;43.562;19.540;2024-02-28T07:34:34;56.10;;;40.30;;
70150;SDS011;57517;43.562;19.540;2024-02-28T07:37:00;47.95;;;38.53;;
70150;SDS011;57517;43.562;19.540;2024-02-28T07:39:26;44.08;;;38.33;;
70150;SDS011;57517;43.562;19.540;2024-02-28T07:41:52;39.38;;;35.08;;
70150;SDS011;57517;43.562;19.540;2024-02-28T07:44:18;36.83;;;32.92;;
70150;SDS011;57517;43.562;19.540;2024-02-28T07:46:43;34.13;;;30.20;;
70150;SDS011;57517;43.562;19.540;2024-02-28T07:49:10;41.08;;;32.80;;
70150;SDS011;57517;43.562;19.540;2024-02-28T07:51:36;43.22;;;35.67;;
70150;SDS011;57517;43.562;19.540;2024-02-28T07:54:01;41.58;;;32.55;;
70150;SDS011;57517;43.562;19.540;2024-02-28T07:56:28;35.25;;;31.42;;
70150;SDS011;57517;43.562;19.540;2024-02-28T07:58:54;34.80;;;29.83;;
70150;SDS011;57517;43.562;19.540;2024-02-28T08:01:20;33.10;;;28.33;;
70150;SDS011;57517;43.562;19.540;2024-02-28T08:03:47;28.98;;;25.88;;
70150;SDS011;57517;43.562;19.540;2024-02-28T08:06:13;30.52;;;27.25;;
70150;SDS011;57517;43.562;19.540;2024-02-28T08:08:39;35.47;;;28.35;;
70150;SDS011;57517;43.562;19.540;2024-02-28T08:11:05;29.77;;;26.95;;
70150;SDS011;57517;43.562;19.540;2024-02-28T08:13:31;35.17;;;28.17;;
70150;SDS011;57517;43.562;19.540;2024-02-28T08:15:58;30.80;;;24.95;;
70150;SDS011;57517;43.562;19.540;2024-02-28T08:18:24;26.00;;;22.45;;
70150;SDS011;57517;43.562;19.540;2024-02-28T08:20:50;34.35;;;24.67;;
70150;SDS011;57517;43.562;19.540;2024-02-28T08:23:17;28.63;;;22.88;;
70150;SDS011;57517;43.562;19.540;2024-02-28T08:25:43;26.23;;;22.05;;
70150;SDS011;57517;43.562;19.540;2024-02-28T08:28:09;43.00;;;28.88;;
70150;SDS011;57517;43.562;19.540;2024-02-28T08:30:35;42.42;;;29.35;;
70150;SDS011;57517;43.562;19.540;2024-02-28T08:33:01;32.90;;;24.75;;
70150;SDS011;57517;43.562;19.540;2024-02-28T08:35:26;29.67;;;23.20;;
70150;SDS011;57517;43.562;19.540;2024-02-28T08:37:53;64.05;;;47.67;;
70150;SDS011;57517;43.562;19.540;2024-02-28T08:40:19;31.67;;;26.58;;
70150;SDS011;57517;43.562;19.540;2024-02-28T08:42:44;62.67;;;45.20;;
70150;SDS011;57517;43.562;19.540;2024-02-28T08:45:11;39.30;;;28.63;;
70150;SDS011;57517;43.562;19.540;2024-02-28T08:47:37;29.30;;;22.30;;
70150;SDS011;57517;43.562;19.540;2024-02-28T08:50:03;21.40;;;18.35;;
70150;SDS011;57517;43.562;19.540;2024-02-28T08:52:29;22.05;;;18.10;;
70150;SDS011;57517;43.562;19.540;2024-02-28T08:54:55;21.02;;;18.80;;
70150;SDS011;57517;43.562;19.540;2024-02-28T08:57:21;30.65;;;24.20;;
70150;SDS011;57517;43.562;19.540;2024-02-28T08:59:48;45.40;;;35.78;;
70150;SDS011;57517;43.562;19.540;2024-02-28T09:02:14;31.42;;;25.45;;
70150;SDS011;57517;43.562;19.540;2024-02-28T09:04:40;27.20;;;22.00;;
70150;SDS011;57517;43.562;19.540;2024-02-28T09:07:06;26.20;;;21.55;;
70150;SDS011;57517;43.562;19.540;2024-02-28T09:09:32;23.20;;;20.20;;
70150;SDS011;57517;43.562;19.540;2024-02-28T09:12:03;22.10;;;19.73;;
70150;SDS011;57517;43.562;19.540;2024-02-28T09:14:29;23.13;;;19.88;;
70150;SDS011;57517;43.562;19.540;2024-02-28T09:16:55;22.98;;;18.67;;
70150;SDS011;57517;43.562;19.540;2024-02-28T09:19:28;17.08;;;14.88;;
70150;SDS011;57517;43.562;19.540;2024-02-28T09:21:54;16.73;;;14.70;;
70150;SDS011;57517;43.562;19.540;2024-02-28T09:24:20;26.40;;;14.80;;
70150;SDS011;57517;43.562;19.540;2024-02-28T09:26:46;16.30;;;12.85;;
70150;SDS011;57517;43.562;19.540;2024-02-28T09:29:12;26.00;;;20.23;;
70150;SDS011;57517;43.562;19.540;2024-02-28T09:31:38;24.23;;;21.52;;
70150;SDS011;57517;43.562;19.540;2024-02-28T09:34:04;13.45;;;11.52;;
70150;SDS011;57517;43.562;19.540;2024-02-28T09:36:43;21.85;;;15.60;;
70150;SDS011;57517;43.562;19.540;2024-02-28T09:39:11;11.23;;;9.73;;
70150;SDS011;57517;43.562;19.540;2024-02-28T09:41:38;9.60;;;7.18;;
70150;SDS011;57517;43.562;19.540;2024-02-28T09:44:04;11.25;;;6.93;;
70150;SDS011;57517;43.562;19.540;2024-02-28T09:46:32;10.27;;;6.32;;
70150;SDS011;57517;43.562;19.540;2024-02-28T09:49:02;12.13;;;8.18;;
70150;SDS011;57517;43.562;19.540;2024-02-28T09:51:28;12.73;;;8.57;;
70150;SDS011;57517;43.562;19.540;2024-02-28T09:53:55;12.32;;;5.80;;
70150;SDS011;57517;43.562;19.540;2024-02-28T09:56:22;32.63;;;24.25;;
70150;SDS011;57517;43.562;19.540;2024-02-28T09:58:49;17.95;;;12.02;;
70150;SDS011;57517;43.562;19.540;2024-02-28T10:01:15;11.10;;;6.53;;
70150;SDS011;57517;43.562;19.540;2024-02-28T10:03:42;12.48;;;5.80;;
70150;SDS011;57517;43.562;19.540;2024-02-28T10:06:10;9.13;;;5.35;;
70150;SDS011;57517;43.562;19.540;2024-02-28T10:08:36;11.82;;;6.45;;
70150;SDS011;57517;43.562;19.540;2024-02-28T10:11:02;9.18;;;5.85;;
70150;SDS011;57517;43.562;19.540;2024-02-28T10:13:28;10.32;;;6.18;;
70150;SDS011;57517;43.562;19.540;2024-02-28T10:15:54;11.55;;;6.63;;
70150;SDS011;57517;43.562;19.540;2024-02-28T10:18:20;10.52;;;6.88;;
70150;SDS011;57517;43.562;19.540;2024-02-28T10:20:47;11.40;;;7.28;;
70150;SDS011;57517;43.562;19.540;2024-02-28T10:23:13;12.55;;;7.38;;
70150;SDS011;57517;43.562;19.540;2024-02-28T10:25:41;12.55;;;9.05;;
70150;SDS011;57517;43.562;19.540;2024-02-28T10:28:08;10.98;;;7.13;;
70150;SDS011;57517;43.562;19.540;2024-02-28T10:30:39;20.13;;;12.77;;
70150;SDS011;57517;43.562;19.540;2024-02-28T10:33:14;18.42;;;10.77;;
70150;SDS011;57517;43.562;19.540;2024-02-28T10:35:41;13.57;;;8.75;;
70150;SDS011;57517;43.562;19.540;2024-02-28T10:38:11;10.85;;;6.97;;
70150;SDS011;57517;43.562;19.540;2024-02-28T10:40:39;15.55;;;8.07;;
70150;SDS011;57517;43.562;19.540;2024-02-28T10:43:07;19.20;;;10.38;;
70150;SDS011;57517;43.562;19.540;2024-02-28T10:45:35;34.28;;;19.25;;
70150;SDS011;57517;43.562;19.540;2024-02-28T10:48:05;28.92;;;13.70;;
70150;SDS011;57517;43.562;19.540;2024-02-28T10:50:31;16.15;;;9.35;;
70150;SDS011;57517;43.562;19.540;2024-02-28T10:53:03;21.15;;;8.88;;
70150;SDS011;57517;43.562;19.540;2024-02-28T10:55:33;17.08;;;8.82;;
70150;SDS011;57517;43.562;19.540;2024-02-28T10:58:07;18.63;;;7.88;;
70150;SDS011;57517;43.562;19.540;2024-02-28T11:00:37;24.07;;;8.73;;
70150;SDS011;57517;43.562;19.540;2024-02-28T11:03:04;16.17;;;5.57;;
70150;SDS011;57517;43.562;19.540;2024-02-28T11:05:42;21.48;;;7.90;;
70150;SDS011;57517;43.562;19.540;2024-02-28T11:08:11;17.27;;;6.35;;
70150;SDS011;57517;43.562;19.540;2024-02-28T11:10:47;17.80;;;6.00;;
70150;SDS011;57517;43.562;19.540;2024-02-28T11:13:23;14.68;;;6.35;;
70150;SDS011;57517;43.562;19.540;2024-02-28T11:15:49;25.10;;;6.30;;
70150;SDS011;57517;43.562;19.540;2024-02-28T11:18:15;13.15;;;5.53;;
70150;SDS011;57517;43.562;19.540;2024-02-28T11:20:42;14.90;;;6.55;;
70150;SDS011;57517;43.562;19.540;2024-02-28T11:23:11;14.18;;;5.93;;
70150;SDS011;57517;43.562;19.540;2024-02-28T11:25:39;16.10;;;6.43;;
70150;SDS011;57517;43.562;19.540;2024-02-28T11:28:08;16.02;;;6.80;;
70150;SDS011;57517;43.562;19.540;2024-02-28T11:30:34;15.77;;;6.20;;
70150;SDS011;57517;43.562;19.540;2024-02-28T11:33:00;18.20;;;6.70;;
70150;SDS011;57517;43.562;19.540;2024-02-28T11:35:26;16.90;;;6.07;;
70150;SDS011;57517;43.562;19.540;2024-02-28T11:37:56;15.27;;;5.95;;
70150;SDS011;57517;43.562;19.540;2024-02-28T11:40:25;19.23;;;6.25;;
70150;SDS011;57517;43.562;19.540;2024-02-28T11:42:52;13.48;;;6.07;;
70150;SDS011;57517;43.562;19.540;2024-02-28T11:45:19;14.30;;;6.20;;
70150;SDS011;57517;43.562;19.540;2024-02-28T11:47:45;11.85;;;6.25;;
70150;SDS011;57517;43.562;19.540;2024-02-28T11:50:11;21.80;;;6.82;;
70150;SDS011;57517;43.562;19.540;2024-02-28T11:52:37;15.45;;;6.75;;
70150;SDS011;57517;43.562;19.540;2024-02-28T11:55:03;26.23;;;12.77;;
70150;SDS011;57517;43.562;19.540;2024-02-28T11:57:29;18.85;;;7.38;;
70150;SDS011;57517;43.562;19.540;2024-02-28T12:00:01;18.23;;;6.60;;
70150;SDS011;57517;43.562;19.540;2024-02-28T12:02:29;14.85;;;6.47;;
70150;SDS011;57517;43.562;19.540;2024-02-28T12:04:59;15.27;;;6.32;;
70150;SDS011;57517;43.562;19.540;2024-02-28T12:07:26;14.73;;;5.90;;
70150;SDS011;57517;43.562;19.540;2024-02-28T12:09:53;15.68;;;7.22;;
70150;SDS011;57517;43.562;19.540;2024-02-28T12:12:19;16.35;;;6.43;;
70150;SDS011;57517;43.562;19.540;2024-02-28T12:14:46;13.70;;;6.28;;
70150;SDS011;57517;43.562;19.540;2024-02-28T12:17:14;15.60;;;6.50;;
70150;SDS011;57517;43.562;19.540;2024-02-28T12:19:40;14.15;;;6.40;;
70150;SDS011;57517;43.562;19.540;2024-02-28T12:22:07;12.02;;;6.20;;
70150;SDS011;57517;43.562;19.540;2024-02-28T12:24:33;15.40;;;6.85;;
70150;SDS011;57517;43.562;19.540;2024-02-28T12:26:59;18.73;;;6.70;;
70150;SDS011;57517;43.562;19.540;2024-02-28T12:29:25;14.15;;;6.97;;
70150;SDS011;57517;43.562;19.540;2024-02-28T12:31:50;17.45;;;6.88;;
70150;SDS011;57517;43.562;19.540;2024-02-28T12:34:16;18.58;;;6.93;;
70150;SDS011;57517;43.562;19.540;2024-02-28T12:36:42;15.20;;;8.38;;
70150;SDS011;57517;43.562;19.540;2024-02-28T12:39:08;18.27;;;7.95;;
70150;SDS011;57517;43.562;19.540;2024-02-28T12:41:39;14.05;;;7.38;;
70150;SDS011;57517;43.562;19.540;2024-02-28T12:44:07;17.67;;;7.40;;
70150;SDS011;57517;43.562;19.540;2024-02-28T12:46:35;15.15;;;7.05;;
70150;SDS011;57517;43.562;19.540;2024-02-28T12:49:03;15.90;;;7.55;;
70150;SDS011;57517;43.562;19.540;2024-02-28T12:51:35;14.65;;;8.05;;
70150;SDS011;57517;43.562;19.540;2024-02-28T12:54:02;14.85;;;6.00;;
70150;SDS011;57517;43.562;19.540;2024-02-28T12:56:28;20.48;;;6.97;;
70150;SDS011;57517;43.562;19.540;2024-02-28T12:58:53;15.18;;;6.15;;
70150;SDS011;57517;43.562;19.540;2024-02-28T13:01:19;17.23;;;6.65;;
70150;SDS011;57517;43.562;19.540;2024-02-28T13:03:45;18.42;;;7.28;;
70150;SDS011;57517;43.562;19.540;2024-02-28T13:06:11;16.02;;;6.20;;
70150;SDS011;57517;43.562;19.540;2024-02-28T13:08:37;16.70;;;7.13;;
70150;SDS011;57517;43.562;19.540;2024-02-28T13:11:03;16.48;;;6.43;;
70150;SDS011;57517;43.562;19.540;2024-02-28T13:13:29;16.85;;;6.50;;
70150;SDS011;57517;43.562;19.540;2024-02-28T13:15:55;13.90;;;6.32;;
70150;SDS011;57517;43.562;19.540;2024-02-28T13:18:21;18.42;;;6.85;;
70150;SDS011;57517;43.562;19.540;2024-02-28T13:20:46;16.60;;;7.20;;
70150;SDS011;57517;43.562;19.540;2024-02-28T13:23:12;14.90;;;7.72;;
70150;SDS011;57517;43.562;19.540;2024-02-28T13:25:38;15.40;;;6.65;;
70150;SDS011;57517;43.562;19.540;2024-02-28T13:28:04;20.38;;;7.78;;
70150;SDS011;57517;43.562;19.540;2024-02-28T13:30:30;22.20;;;7.70;;
70150;SDS011;57517;43.562;19.540;2024-02-28T13:32:55;13.80;;;5.95;;
70150;SDS011;57517;43.562;19.540;2024-02-28T13:35:22;12.00;;;7.10;;
70150;SDS011;57517;43.562;19.540;2024-02-28T13:37:47;16.13;;;9.27;;
70150;SDS011;57517;43.562;19.540;2024-02-28T13:40:13;13.40;;;7.28;;
70150;SDS011;57517;43.562;19.540;2024-02-28T13:42:39;15.15;;;6.93;;
70150;SDS011;57517;43.562;19.540;2024-02-28T13:45:06;16.30;;;7.10;;
70150;SDS011;57517;43.562;19.540;2024-02-28T13:47:32;18.15;;;8.07;;
70150;SDS011;57517;43.562;19.540;2024-02-28T13:50:00;17.60;;;7.50;;
70150;SDS011;57517;43.562;19.540;2024-02-28T13:52:27;14.88;;;7.07;;
70150;SDS011;57517;43.562;19.540;2024-02-28T13:54:52;12.63;;;6.57;;
70150;SDS011;57517;43.562;19.540;2024-02-28T13:57:19;15.23;;;6.63;;
70150;SDS011;57517;43.562;19.540;2024-02-28T13:59:45;19.05;;;7.15;;
70150;SDS011;57517;43.562;19.540;2024-02-28T14:02:14;13.77;;;7.30;;
70150;SDS011;57517;43.562;19.540;2024-02-28T14:04:40;11.77;;;5.93;;
70150;SDS011;57517;43.562;19.540;2024-02-28T14:07:08;14.98;;;6.78;;
70150;SDS011;57517;43.562;19.540;2024-02-28T14:09:34;25.20;;;11.23;;